sensor_id;sensor_type;location;lat;lon;timestamp;P1;durP1;ratioP1;P2;durP2;ratioP2
3643;SDS011;1838;50.742;7.158;2023-01-08T00:01:08;4.80;;;1.90;;
3643;SDS011;1838;50.742;7.158;2023-01-08T00:03:36;4.33;;;1.97;;
3643;SDS011;1838;50.742;7.158;2023-01-08T00:06:06;2.80;;;1.97;;
3643;SDS011;1838;50.742;7.158;2023-01-08T00:08:34;3.70;;;2.40;;
3643;SDS011;1838;50.742;7.158;2023-01-08T00:11:00;2.30;;;1.80;;
3643;SDS011;1838;50.742;7.158;2023-01-08T00:13:25;3.83;;;2.40;;
3643;SDS011;1838;50.742;7.158;2023-01-08T00:15:51;2.20;;;1.67;;
3643;SDS011;1838;50.742;7.158;2023-01-08T00:18:17;2.40;;;2.00;;
3643;SDS011;1838;50.742;7.158;2023-01-08T00:20:43;3.03;;;2.10;;
3643;SDS011;1838;50.742;7.158;2023-01-08T00:23:12;3.73;;;2.17;;
3643;SDS011;1838;50.742;7.158;2023-01-08T00:25:39;3.07;;;2.03;;
3643;SDS011;1838;50.742;7.158;2023-01-08T00:28:05;3.63;;;2.37;;
3643;SDS011;1838;50.742;7.158;2023-01-08T00:30:30;2.53;;;1.97;;
3643;SDS011;1838;50.742;7.158;2023-01-08T00:32:56;3.50;;;1.80;;
3643;SDS011;1838;50.742;7.158;2023-01-08T00:35:21;3.83;;;2.00;;
3643;SDS011;1838;50.742;7.158;2023-01-08T00:37:50;3.80;;;2.60;;
3643;SDS011;1838;50.742;7.158;2023-01-08T00:40:16;4.27;;;2.57;;
3643;SDS011;1838;50.742;7.158;2023-01-08T00:42:41;2.40;;;2.07;;
3643;SDS011;1838;50.742;7.158;2023-01-08T00:45:09;2.57;;;2.00;;
3643;SDS011;1838;50.742;7.158;2023-01-08T00:47:35;4.60;;;2.50;;
3643;SDS011;1838;50.742;7.158;2023-01-08T00:50:00;6.00;;;2.43;;
3643;SDS011;1838;50.742;7.158;2023-01-08T00:52:26;2.80;;;2.10;;
3643;SDS011;1838;50.742;7.158;2023-01-08T00:54:52;2.70;;;2.20;;
3643;SDS011;1838;50.742;7.158;2023-01-08T00:57:17;2.43;;;2.17;;
3643;SDS011;1838;50.742;7.158;2023-01-08T00:59:43;3.70;;;2.80;;
3643;SDS011;1838;50.742;7.158;2023-01-08T01:02:09;3.73;;;2.57;;
3643;SDS011;1838;50.742;7.158;2023-01-08T01:04:34;3.40;;;2.17;;
3643;SDS011;1838;50.742;7.158;2023-01-08T01:07:00;2.67;;;2.30;;
3643;SDS011;1838;50.742;7.158;2023-01-08T01:09:26;3.57;;;2.13;;
3643;SDS011;1838;50.742;7.158;2023-01-08T01:11:52;2.40;;;2.20;;
3643;SDS011;1838;50.742;7.158;2023-01-08T01:14:17;3.80;;;2.20;;
3643;SDS011;1838;50.742;7.158;2023-01-08T01:16:43;5.07;;;2.37;;
3643;SDS011;1838;50.742;7.158;2023-01-08T01:19:08;3.33;;;2.40;;
3643;SDS011;1838;50.742;7.158;2023-01-08T01:21:34;3.63;;;2.30;;
3643;SDS011;1838;50.742;7.158;2023-01-08T01:24:04;3.13;;;2.30;;
3643;SDS011;1838;50.742;7.158;2023-01-08T01:26:30;4.03;;;2.17;;
3643;SDS011;1838;50.742;7.158;2023-01-08T01:28:57;2.83;;;2.37;;
3643;SDS011;1838;50.742;7.158;2023-01-08T01:31:24;3.07;;;2.70;;
3643;SDS011;1838;50.742;7.158;2023-01-08T01:33:50;3.70;;;2.40;;
3643;SDS011;1838;50.742;7.158;2023-01-08T01:36:16;2.30;;;1.70;;
3643;SDS011;1838;50.742;7.158;2023-01-08T01:38:44;3.07;;;2.50;;
3643;SDS011;1838;50.742;7.158;2023-01-08T01:43:53;3.90;;;2.40;;
3643;SDS011;1838;50.742;7.158;2023-01-08T01:46:22;4.30;;;2.60;;
3643;SDS011;1838;50.742;7.158;2023-01-08T01:48:58;3.90;;;2.27;;
3643;SDS011;1838;50.742;7.158;2023-01-08T01:51:28;4.10;;;2.27;;
3643;SDS011;1838;50.742;7.158;2023-01-08T01:53:57;4.27;;;3.00;;
3643;SDS011;1838;50.742;7.158;2023-01-08T01:56:24;5.03;;;2.40;;
3643;SDS011;1838;50.742;7.158;2023-01-08T01:58:51;3.00;;;2.43;;
3643;SDS011;1838;50.742;7.158;2023-01-08T02:01:16;4.50;;;3.70;;
3643;SDS011;1838;50.742;7.158;2023-01-08T02:03:43;5.63;;;2.37;;
3643;SDS011;1838;50.742;7.158;2023-01-08T02:06:22;2.40;;;2.00;;
3643;SDS011;1838;50.742;7.158;2023-01-08T02:08:58;4.30;;;2.67;;
3643;SDS011;1838;50.742;7.158;2023-01-08T02:11:49;4.07;;;2.83;;
3643;SDS011;1838;50.742;7.158;2023-01-08T02:14:47;3.20;;;2.90;;
3643;SDS011;1838;50.742;7.158;2023-01-08T02:20:24;5.47;;;3.10;;
3643;SDS011;1838;50.742;7.158;2023-01-08T02:23:07;3.77;;;2.70;;
3643;SDS011;1838;50.742;7.158;2023-01-08T02:28:46;2.93;;;2.50;;
3643;SDS011;1838;50.742;7.158;2023-01-08T02:31:17;4.70;;;3.20;;
3643;SDS011;1838;50.742;7.158;2023-01-08T02:33:45;3.83;;;2.80;;
3643;SDS011;1838;50.742;7.158;2023-01-08T02:39:15;3.70;;;2.83;;
3643;SDS011;1838;50.742;7.158;2023-01-08T02:42:10;6.50;;;3.30;;
3643;SDS011;1838;50.742;7.158;2023-01-08T02:44:53;4.90;;;3.03;;
3643;SDS011;1838;50.742;7.158;2023-01-08T02:47:22;4.37;;;2.90;;
3643;SDS011;1838;50.742;7.158;2023-01-08T02:50:13;5.43;;;2.73;;
3643;SDS011;1838;50.742;7.158;2023-01-08T02:53:28;4.73;;;3.03;;
3643;SDS011;1838;50.742;7.158;2023-01-08T02:55:41;4.50;;;2.73;;
3643;SDS011;1838;50.742;7.158;2023-01-08T02:58:08;4.50;;;3.03;;
3643;SDS011;1838;50.742;7.158;2023-01-08T03:00:35;3.70;;;2.90;;
3643;SDS011;1838;50.742;7.158;2023-01-08T03:03:08;3.60;;;2.80;;
3643;SDS011;1838;50.742;7.158;2023-01-08T03:05:50;6.33;;;2.50;;
3643;SDS011;1838;50.742;7.158;2023-01-08T03:08:18;3.17;;;2.60;;
3643;SDS011;1838;50.742;7.158;2023-01-08T03:10:46;6.10;;;3.23;;
3643;SDS011;1838;50.742;7.158;2023-01-08T03:13:38;3.00;;;2.60;;
3643;SDS011;1838;50.742;7.158;2023-01-08T03:16:02;6.70;;;2.47;;
3643;SDS011;1838;50.742;7.158;2023-01-08T03:18:34;3.77;;;2.40;;
3643;SDS011;1838;50.742;7.158;2023-01-08T03:21:03;3.37;;;2.00;;
3643;SDS011;1838;50.742;7.158;2023-01-08T03:23:31;2.63;;;1.90;;
3643;SDS011;1838;50.742;7.158;2023-01-08T03:25:59;2.50;;;2.20;;
3643;SDS011;1838;50.742;7.158;2023-01-08T03:28:28;4.10;;;2.23;;
3643;SDS011;1838;50.742;7.158;2023-01-08T03:30:56;2.53;;;1.93;;
3643;SDS011;1838;50.742;7.158;2023-01-08T03:33:23;2.20;;;1.80;;
3643;SDS011;1838;50.742;7.158;2023-01-08T03:35:50;3.03;;;1.80;;
3643;SDS011;1838;50.742;7.158;2023-01-08T03:38:29;4.30;;;2.30;;
3643;SDS011;1838;50.742;7.158;2023-01-08T03:40:59;2.60;;;1.60;;
3643;SDS011;1838;50.742;7.158;2023-01-08T03:43:29;3.23;;;1.80;;
3643;SDS011;1838;50.742;7.158;2023-01-08T03:45:55;2.60;;;1.77;;
3643;SDS011;1838;50.742;7.158;2023-01-08T03:48:25;3.50;;;1.90;;
3643;SDS011;1838;50.742;7.158;2023-01-08T03:50:54;1.80;;;1.40;;
3643;SDS011;1838;50.742;7.158;2023-01-08T03:53:20;2.50;;;1.67;;
3643;SDS011;1838;50.742;7.158;2023-01-08T03:55:45;2.63;;;1.43;;
3643;SDS011;1838;50.742;7.158;2023-01-08T03:58:11;7.33;;;2.20;;
3643;SDS011;1838;50.742;7.158;2023-01-08T04:00:36;2.60;;;1.40;;
3643;SDS011;1838;50.742;7.158;2023-01-08T04:03:02;2.03;;;1.07;;
3643;SDS011;1838;50.742;7.158;2023-01-08T04:05:28;2.30;;;1.13;;
3643;SDS011;1838;50.742;7.158;2023-01-08T04:07:54;2.67;;;1.30;;
3643;SDS011;1838;50.742;7.158;2023-01-08T04:10:20;1.80;;;1.47;;
3643;SDS011;1838;50.742;7.158;2023-01-08T04:12:46;1.77;;;1.30;;
3643;SDS011;1838;50.742;7.158;2023-01-08T04:15:12;1.50;;;0.90;;
3643;SDS011;1838;50.742;7.158;2023-01-08T04:17:37;1.80;;;0.90;;
3643;SDS011;1838;50.742;7.158;2023-01-08T04:20:03;1.70;;;0.80;;
3643;SDS011;1838;50.742;7.158;2023-01-08T04:22:29;1.63;;;0.90;;
3643;SDS011;1838;50.742;7.158;2023-01-08T04:24:54;1.60;;;1.10;;
3643;SDS011;1838;50.742;7.158;2023-01-08T04:27:20;1.90;;;1.10;;
3643;SDS011;1838;50.742;7.158;2023-01-08T04:29:45;1.40;;;0.80;;
3643;SDS011;1838;50.742;7.158;2023-01-08T04:32:11;2.80;;;1.27;;
3643;SDS011;1838;50.742;7.158;2023-01-08T04:34:36;1.50;;;0.83;;
3643;SDS011;1838;50.742;7.158;2023-01-08T04:37:02;1.77;;;1.10;;
3643;SDS011;1838;50.742;7.158;2023-01-08T04:39:27;2.33;;;1.27;;
3643;SDS011;1838;50.742;7.158;2023-01-08T04:41:53;1.50;;;0.83;;
3643;SDS011;1838;50.742;7.158;2023-01-08T04:44:18;1.33;;;0.70;;
3643;SDS011;1838;50.742;7.158;2023-01-08T04:46:44;1.47;;;0.80;;
3643;SDS011;1838;50.742;7.158;2023-01-08T04:49:13;1.80;;;1.10;;
3643;SDS011;1838;50.742;7.158;2023-01-08T04:51:38;4.13;;;0.97;;
3643;SDS011;1838;50.742;7.158;2023-01-08T04:54:04;1.80;;;0.93;;
3643;SDS011;1838;50.742;7.158;2023-01-08T04:56:30;1.90;;;0.90;;
3643;SDS011;1838;50.742;7.158;2023-01-08T04:58:55;1.50;;;0.80;;
3643;SDS011;1838;50.742;7.158;2023-01-08T05:01:23;1.50;;;0.80;;
3643;SDS011;1838;50.742;7.158;2023-01-08T05:03:54;2.10;;;1.10;;
3643;SDS011;1838;50.742;7.158;2023-01-08T05:06:24;1.67;;;0.90;;
3643;SDS011;1838;50.742;7.158;2023-01-08T05:08:50;1.70;;;1.23;;
3643;SDS011;1838;50.742;7.158;2023-01-08T05:11:15;3.07;;;1.00;;
3643;SDS011;1838;50.742;7.158;2023-01-08T05:13:41;2.00;;;1.10;;
3643;SDS011;1838;50.742;7.158;2023-01-08T05:16:07;1.90;;;0.90;;
3643;SDS011;1838;50.742;7.158;2023-01-08T05:18:33;2.80;;;1.27;;
3643;SDS011;1838;50.742;7.158;2023-01-08T05:21:02;1.80;;;1.10;;
3643;SDS011;1838;50.742;7.158;2023-01-08T05:23:29;1.50;;;0.80;;
3643;SDS011;1838;50.742;7.158;2023-01-08T05:25:56;1.93;;;0.90;;
3643;SDS011;1838;50.742;7.158;2023-01-08T05:28:23;1.70;;;1.10;;
3643;SDS011;1838;50.742;7.158;2023-01-08T05:30:49;1.80;;;0.93;;
3643;SDS011;1838;50.742;7.158;2023-01-08T05:33:14;1.90;;;1.10;;
3643;SDS011;1838;50.742;7.158;2023-01-08T05:35:40;3.30;;;1.10;;
3643;SDS011;1838;50.742;7.158;2023-01-08T05:38:06;2.10;;;1.37;;
3643;SDS011;1838;50.742;7.158;2023-01-08T05:40:32;1.80;;;0.93;;
3643;SDS011;1838;50.742;7.158;2023-01-08T05:42:58;1.53;;;1.00;;
3643;SDS011;1838;50.742;7.158;2023-01-08T05:45:24;3.20;;;0.90;;
3643;SDS011;1838;50.742;7.158;2023-01-08T05:47:49;1.83;;;1.20;;
3643;SDS011;1838;50.742;7.158;2023-01-08T05:50:15;1.80;;;1.20;;
3643;SDS011;1838;50.742;7.158;2023-01-08T05:52:40;1.67;;;1.00;;
3643;SDS011;1838;50.742;7.158;2023-01-08T05:55:06;2.17;;;1.10;;
3643;SDS011;1838;50.742;7.158;2023-01-08T05:57:32;1.77;;;1.20;;
3643;SDS011;1838;50.742;7.158;2023-01-08T05:59:57;2.03;;;1.37;;
3643;SDS011;1838;50.742;7.158;2023-01-08T06:02:23;1.40;;;0.70;;
3643;SDS011;1838;50.742;7.158;2023-01-08T06:04:48;1.57;;;0.87;;
3643;SDS011;1838;50.742;7.158;2023-01-08T06:07:14;1.50;;;0.87;;
3643;SDS011;1838;50.742;7.158;2023-01-08T06:09:39;1.80;;;1.27;;
3643;SDS011;1838;50.742;7.158;2023-01-08T06:12:05;3.20;;;1.17;;
3643;SDS011;1838;50.742;7.158;2023-01-08T06:14:30;1.50;;;0.90;;
3643;SDS011;1838;50.742;7.158;2023-01-08T06:16:56;6.13;;;1.10;;
3643;SDS011;1838;50.742;7.158;2023-01-08T06:19:22;1.77;;;1.10;;
3643;SDS011;1838;50.742;7.158;2023-01-08T06:21:47;5.40;;;1.10;;
3643;SDS011;1838;50.742;7.158;2023-01-08T06:24:13;1.87;;;1.00;;
3643;SDS011;1838;50.742;7.158;2023-01-08T06:26:38;1.70;;;0.80;;
3643;SDS011;1838;50.742;7.158;2023-01-08T06:29:04;2.00;;;1.10;;
3643;SDS011;1838;50.742;7.158;2023-01-08T06:31:30;2.10;;;0.90;;
3643;SDS011;1838;50.742;7.158;2023-01-08T06:33:55;1.80;;;1.30;;
3643;SDS011;1838;50.742;7.158;2023-01-08T06:36:21;2.30;;;1.10;;
3643;SDS011;1838;50.742;7.158;2023-01-08T06:38:46;1.67;;;1.03;;
3643;SDS011;1838;50.742;7.158;2023-01-08T06:41:12;1.60;;;0.90;;
3643;SDS011;1838;50.742;7.158;2023-01-08T06:43:37;6.83;;;1.47;;
3643;SDS011;1838;50.742;7.158;2023-01-08T06:46:03;1.60;;;0.90;;
3643;SDS011;1838;50.742;7.158;2023-01-08T06:48:30;1.53;;;0.80;;
3643;SDS011;1838;50.742;7.158;2023-01-08T06:50:58;1.77;;;0.83;;
3643;SDS011;1838;50.742;7.158;2023-01-08T06:53:23;1.90;;;1.00;;
3643;SDS011;1838;50.742;7.158;2023-01-08T06:55:49;1.87;;;1.00;;
3643;SDS011;1838;50.742;7.158;2023-01-08T06:58:20;1.53;;;1.00;;
3643;SDS011;1838;50.742;7.158;2023-01-08T07:00:50;1.93;;;0.90;;
3643;SDS011;1838;50.742;7.158;2023-01-08T07:03:15;1.80;;;1.03;;
3643;SDS011;1838;50.742;7.158;2023-01-08T07:05:41;2.10;;;0.80;;
3643;SDS011;1838;50.742;7.158;2023-01-08T07:08:10;1.80;;;0.90;;
3643;SDS011;1838;50.742;7.158;2023-01-08T07:10:38;4.53;;;1.27;;
3643;SDS011;1838;50.742;7.158;2023-01-08T07:13:04;3.50;;;1.30;;
3643;SDS011;1838;50.742;7.158;2023-01-08T07:15:29;2.23;;;0.90;;
3643;SDS011;1838;50.742;7.158;2023-01-08T07:17:55;2.50;;;1.00;;
3643;SDS011;1838;50.742;7.158;2023-01-08T07:20:20;1.47;;;0.90;;
3643;SDS011;1838;50.742;7.158;2023-01-08T07:22:46;2.33;;;1.10;;
3643;SDS011;1838;50.742;7.158;2023-01-08T07:25:11;2.23;;;1.20;;
3643;SDS011;1838;50.742;7.158;2023-01-08T07:27:36;1.50;;;0.90;;
3643;SDS011;1838;50.742;7.158;2023-01-08T07:30:03;4.40;;;1.50;;
3643;SDS011;1838;50.742;7.158;2023-01-08T07:32:29;1.60;;;0.80;;
3643;SDS011;1838;50.742;7.158;2023-01-08T07:34:54;3.10;;;1.10;;
3643;SDS011;1838;50.742;7.158;2023-01-08T07:37:23;3.30;;;1.10;;
3643;SDS011;1838;50.742;7.158;2023-01-08T07:39:48;1.73;;;1.03;;
3643;SDS011;1838;50.742;7.158;2023-01-08T07:42:16;2.70;;;1.73;;
3643;SDS011;1838;50.742;7.158;2023-01-08T07:44:42;2.20;;;1.53;;
3643;SDS011;1838;50.742;7.158;2023-01-08T07:47:08;2.67;;;1.23;;
3643;SDS011;1838;50.742;7.158;2023-01-08T07:49:33;3.03;;;1.73;;
3643;SDS011;1838;50.742;7.158;2023-01-08T07:51:59;1.93;;;1.10;;
3643;SDS011;1838;50.742;7.158;2023-01-08T07:54:24;1.70;;;1.20;;
3643;SDS011;1838;50.742;7.158;2023-01-08T07:56:52;2.07;;;1.10;;
3643;SDS011;1838;50.742;7.158;2023-01-08T07:59:18;4.80;;;1.10;;
3643;SDS011;1838;50.742;7.158;2023-01-08T08:01:44;3.10;;;1.17;;
3643;SDS011;1838;50.742;7.158;2023-01-08T08:04:09;3.50;;;1.60;;
3643;SDS011;1838;50.742;7.158;2023-01-08T08:06:35;2.67;;;1.33;;
3643;SDS011;1838;50.742;7.158;2023-01-08T08:09:00;2.40;;;1.20;;
3643;SDS011;1838;50.742;7.158;2023-01-08T08:11:27;2.03;;;1.00;;
3643;SDS011;1838;50.742;7.158;2023-01-08T08:13:53;4.27;;;1.60;;
3643;SDS011;1838;50.742;7.158;2023-01-08T08:16:18;3.57;;;1.20;;
3643;SDS011;1838;50.742;7.158;2023-01-08T08:18:44;2.30;;;1.30;;
3643;SDS011;1838;50.742;7.158;2023-01-08T08:21:09;2.20;;;1.50;;
3643;SDS011;1838;50.742;7.158;2023-01-08T08:23:35;2.80;;;1.40;;
3643;SDS011;1838;50.742;7.158;2023-01-08T08:26:01;1.67;;;0.97;;
3643;SDS011;1838;50.742;7.158;2023-01-08T08:28:28;1.63;;;1.03;;
3643;SDS011;1838;50.742;7.158;2023-01-08T08:30:53;4.27;;;1.50;;
3643;SDS011;1838;50.742;7.158;2023-01-08T08:33:19;2.90;;;1.57;;
3643;SDS011;1838;50.742;7.158;2023-01-08T08:35:48;2.50;;;1.93;;
3643;SDS011;1838;50.742;7.158;2023-01-08T08:38:15;2.57;;;2.30;;
3643;SDS011;1838;50.742;7.158;2023-01-08T08:40:41;2.50;;;1.70;;
3643;SDS011;1838;50.742;7.158;2023-01-08T08:43:07;3.97;;;1.87;;
3643;SDS011;1838;50.742;7.158;2023-01-08T08:45:34;5.03;;;1.73;;
3643;SDS011;1838;50.742;7.158;2023-01-08T08:47:59;2.60;;;1.60;;
3643;SDS011;1838;50.742;7.158;2023-01-08T08:50:25;2.17;;;1.43;;
3643;SDS011;1838;50.742;7.158;2023-01-08T08:52:50;1.83;;;1.10;;
3643;SDS011;1838;50.742;7.158;2023-01-08T08:55:16;3.47;;;1.63;;
3643;SDS011;1838;50.742;7.158;2023-01-08T08:57:43;2.63;;;1.30;;
3643;SDS011;1838;50.742;7.158;2023-01-08T09:00:09;2.30;;;1.30;;
3643;SDS011;1838;50.742;7.158;2023-01-08T09:02:35;4.27;;;1.40;;
3643;SDS011;1838;50.742;7.158;2023-01-08T09:05:01;3.43;;;1.70;;
3643;SDS011;1838;50.742;7.158;2023-01-08T09:07:26;2.70;;;1.00;;
3643;SDS011;1838;50.742;7.158;2023-01-08T09:09:52;3.33;;;1.23;;
3643;SDS011;1838;50.742;7.158;2023-01-08T09:12:17;3.03;;;1.20;;
3643;SDS011;1838;50.742;7.158;2023-01-08T09:14:43;1.83;;;1.27;;
3643;SDS011;1838;50.742;7.158;2023-01-08T09:17:08;1.93;;;1.23;;
3643;SDS011;1838;50.742;7.158;2023-01-08T09:19:34;3.00;;;1.57;;
3643;SDS011;1838;50.742;7.158;2023-01-08T09:22:00;3.50;;;1.13;;
3643;SDS011;1838;50.742;7.158;2023-01-08T09:24:26;4.53;;;1.43;;
3643;SDS011;1838;50.742;7.158;2023-01-08T09:26:52;2.23;;;1.43;;
3643;SDS011;1838;50.742;7.158;2023-01-08T09:29:18;5.30;;;1.77;;
3643;SDS011;1838;50.742;7.158;2023-01-08T09:31:44;4.17;;;1.40;;
3643;SDS011;1838;50.742;7.158;2023-01-08T09:34:10;2.63;;;1.30;;
3643;SDS011;1838;50.742;7.158;2023-01-08T09:36:36;3.00;;;1.20;;
3643;SDS011;1838;50.742;7.158;2023-01-08T09:39:02;2.43;;;1.10;;
3643;SDS011;1838;50.742;7.158;2023-01-08T09:41:29;1.77;;;1.00;;
3643;SDS011;1838;50.742;7.158;2023-01-08T09:43:57;4.03;;;1.20;;
3643;SDS011;1838;50.742;7.158;2023-01-08T09:46:27;3.27;;;1.27;;
3643;SDS011;1838;50.742;7.158;2023-01-08T09:48:54;2.30;;;1.03;;
3643;SDS011;1838;50.742;7.158;2023-01-08T09:51:24;6.00;;;1.23;;
3643;SDS011;1838;50.742;7.158;2023-01-08T09:53:55;3.73;;;1.20;;
3643;SDS011;1838;50.742;7.158;2023-01-08T09:56:21;4.20;;;1.50;;
3643;SDS011;1838;50.742;7.158;2023-01-08T09:58:48;3.60;;;1.30;;
3643;SDS011;1838;50.742;7.158;2023-01-08T10:01:24;3.80;;;1.33;;
3643;SDS011;1838;50.742;7.158;2023-01-08T10:06:36;7.10;;;1.37;;
3643;SDS011;1838;50.742;7.158;2023-01-08T10:09:01;2.33;;;1.40;;
3643;SDS011;1838;50.742;7.158;2023-01-08T10:11:27;3.80;;;2.50;;
3643;SDS011;1838;50.742;7.158;2023-01-08T10:13:58;3.20;;;1.93;;
3643;SDS011;1838;50.742;7.158;2023-01-08T10:16:31;2.33;;;1.30;;
3643;SDS011;1838;50.742;7.158;2023-01-08T10:19:00;6.80;;;1.53;;
3643;SDS011;1838;50.742;7.158;2023-01-08T10:21:30;1.93;;;1.27;;
3643;SDS011;1838;50.742;7.158;2023-01-08T10:24:01;2.50;;;1.33;;
3643;SDS011;1838;50.742;7.158;2023-01-08T10:26:34;2.63;;;1.40;;
3643;SDS011;1838;50.742;7.158;2023-01-08T10:29:11;3.63;;;1.60;;
3643;SDS011;1838;50.742;7.158;2023-01-08T10:31:54;5.10;;;1.63;;
3643;SDS011;1838;50.742;7.158;2023-01-08T10:34:26;3.00;;;1.63;;
3643;SDS011;1838;50.742;7.158;2023-01-08T10:37:23;2.90;;;1.70;;
3643;SDS011;1838;50.742;7.158;2023-01-08T10:39:51;2.10;;;1.40;;
3643;SDS011;1838;50.742;7.158;2023-01-08T10:42:20;2.33;;;1.20;;
3643;SDS011;1838;50.742;7.158;2023-01-08T10:44:58;2.23;;;1.33;;
3643;SDS011;1838;50.742;7.158;2023-01-08T10:47:27;2.90;;;1.10;;
3643;SDS011;1838;50.742;7.158;2023-01-08T10:49:55;7.40;;;2.00;;
3643;SDS011;1838;50.742;7.158;2023-01-08T10:52:34;11.20;;;1.07;;
3643;SDS011;1838;50.742;7.158;2023-01-08T10:55:15;4.57;;;1.20;;
3643;SDS011;1838;50.742;7.158;2023-01-08T10:58:14;2.20;;;1.20;;
3643;SDS011;1838;50.742;7.158;2023-01-08T11:00:39;3.07;;;1.10;;
3643;SDS011;1838;50.742;7.158;2023-01-08T11:03:06;4.27;;;1.10;;
3643;SDS011;1838;50.742;7.158;2023-01-08T11:05:42;2.23;;;1.07;;
3643;SDS011;1838;50.742;7.158;2023-01-08T11:08:12;1.90;;;0.90;;
3643;SDS011;1838;50.742;7.158;2023-01-08T11:10:41;1.70;;;0.90;;
3643;SDS011;1838;50.742;7.158;2023-01-08T11:13:16;1.90;;;0.93;;
3643;SDS011;1838;50.742;7.158;2023-01-08T11:15:43;1.90;;;1.30;;
3643;SDS011;1838;50.742;7.158;2023-01-08T11:18:19;1.90;;;1.10;;
3643;SDS011;1838;50.742;7.158;2023-01-08T11:20:47;2.50;;;1.10;;
3643;SDS011;1838;50.742;7.158;2023-01-08T11:23:21;2.50;;;1.47;;
3643;SDS011;1838;50.742;7.158;2023-01-08T11:26:00;2.20;;;1.30;;
3643;SDS011;1838;50.742;7.158;2023-01-08T11:28:55;1.97;;;1.13;;
3643;SDS011;1838;50.742;7.158;2023-01-08T11:37:09;1.77;;;1.10;;
3643;SDS011;1838;50.742;7.158;2023-01-08T11:39:45;1.67;;;0.90;;
3643;SDS011;1838;50.742;7.158;2023-01-08T11:50:45;1.50;;;0.80;;
3643;SDS011;1838;50.742;7.158;2023-01-08T12:09:39;2.10;;;0.70;;
3643;SDS011;1838;50.742;7.158;2023-01-08T12:12:13;1.80;;;0.77;;
3643;SDS011;1838;50.742;7.158;2023-01-08T12:20:23;1.57;;;0.70;;
3643;SDS011;1838;50.742;7.158;2023-01-08T12:23:04;1.50;;;0.60;;
3643;SDS011;1838;50.742;7.158;2023-01-08T12:28:21;3.30;;;0.90;;
3643;SDS011;1838;50.742;7.158;2023-01-08T12:31:06;1.50;;;0.60;;
3643;SDS011;1838;50.742;7.158;2023-01-08T12:33:49;3.20;;;0.90;;
3643;SDS011;1838;50.742;7.158;2023-01-08T12:36:36;1.47;;;0.70;;
3643;SDS011;1838;50.742;7.158;2023-01-08T12:39:11;3.40;;;0.63;;
3643;SDS011;1838;50.742;7.158;2023-01-08T12:42:06;1.50;;;0.80;;
3643;SDS011;1838;50.742;7.158;2023-01-08T12:44:35;2.50;;;0.63;;
3643;SDS011;1838;50.742;7.158;2023-01-08T12:47:01;1.40;;;0.60;;
3643;SDS011;1838;50.742;7.158;2023-01-08T12:49:36;1.73;;;0.60;;
3643;SDS011;1838;50.742;7.158;2023-01-08T12:54:47;3.20;;;0.90;;
3643;SDS011;1838;50.742;7.158;2023-01-08T12:57:33;2.10;;;0.70;;
3643;SDS011;1838;50.742;7.158;2023-01-08T13:00:07;2.90;;;1.00;;
3643;SDS011;1838;50.742;7.158;2023-01-08T13:07:48;3.07;;;0.70;;
3643;SDS011;1838;50.742;7.158;2023-01-08T13:13:01;3.57;;;0.83;;
3643;SDS011;1838;50.742;7.158;2023-01-08T13:15:28;1.30;;;0.60;;
3643;SDS011;1838;50.742;7.158;2023-01-08T13:17:56;1.77;;;0.80;;
3643;SDS011;1838;50.742;7.158;2023-01-08T13:20:27;1.27;;;0.60;;
3643;SDS011;1838;50.742;7.158;2023-01-08T13:22:55;1.50;;;0.60;;
3643;SDS011;1838;50.742;7.158;2023-01-08T13:27:49;3.70;;;0.70;;
3643;SDS011;1838;50.742;7.158;2023-01-08T13:38:36;1.87;;;0.70;;
3643;SDS011;1838;50.742;7.158;2023-01-08T13:41:02;1.93;;;1.10;;
3643;SDS011;1838;50.742;7.158;2023-01-08T13:43:37;1.60;;;0.80;;
3643;SDS011;1838;50.742;7.158;2023-01-08T13:46:05;1.43;;;0.63;;
3643;SDS011;1838;50.742;7.158;2023-01-08T13:48:39;1.30;;;0.60;;
3643;SDS011;1838;50.742;7.158;2023-01-08T13:51:47;1.40;;;0.60;;
3643;SDS011;1838;50.742;7.158;2023-01-08T13:56:41;1.60;;;0.77;;
3643;SDS011;1838;50.742;7.158;2023-01-08T14:02:25;1.53;;;0.60;;
3643;SDS011;1838;50.742;7.158;2023-01-08T14:04:53;1.70;;;0.97;;
3643;SDS011;1838;50.742;7.158;2023-01-08T14:07:20;1.17;;;0.50;;
3643;SDS011;1838;50.742;7.158;2023-01-08T14:09:47;1.40;;;0.70;;
3643;SDS011;1838;50.742;7.158;2023-01-08T14:12:14;1.60;;;0.70;;
3643;SDS011;1838;50.742;7.158;2023-01-08T14:14:45;1.40;;;0.60;;
3643;SDS011;1838;50.742;7.158;2023-01-08T14:17:14;1.77;;;0.63;;
3643;SDS011;1838;50.742;7.158;2023-01-08T14:19:41;1.20;;;0.60;;
3643;SDS011;1838;50.742;7.158;2023-01-08T14:22:10;1.67;;;0.70;;
3643;SDS011;1838;50.742;7.158;2023-01-08T14:24:41;1.30;;;0.53;;
3643;SDS011;1838;50.742;7.158;2023-01-08T14:27:17;1.63;;;0.70;;
3643;SDS011;1838;50.742;7.158;2023-01-08T14:29:45;3.23;;;1.53;;
3643;SDS011;1838;50.742;7.158;2023-01-08T14:32:12;3.33;;;0.70;;
3643;SDS011;1838;50.742;7.158;2023-01-08T14:34:41;1.80;;;0.90;;
3643;SDS011;1838;50.742;7.158;2023-01-08T14:37:11;2.23;;;0.70;;
3643;SDS011;1838;50.742;7.158;2023-01-08T14:39:41;1.47;;;0.60;;
3643;SDS011;1838;50.742;7.158;2023-01-08T14:42:09;1.90;;;1.00;;
3643;SDS011;1838;50.742;7.158;2023-01-08T14:47:43;1.43;;;0.70;;
3643;SDS011;1838;50.742;7.158;2023-01-08T14:50:17;2.13;;;0.70;;
3643;SDS011;1838;50.742;7.158;2023-01-08T14:53:35;3.37;;;0.70;;
3643;SDS011;1838;50.742;7.158;2023-01-08T14:55:45;3.10;;;0.90;;
3643;SDS011;1838;50.742;7.158;2023-01-08T14:58:14;1.50;;;0.67;;
3643;SDS011;1838;50.742;7.158;2023-01-08T15:00:55;2.80;;;0.80;;
3643;SDS011;1838;50.742;7.158;2023-01-08T15:06:02;1.50;;;0.70;;
3643;SDS011;1838;50.742;7.158;2023-01-08T15:08:33;4.70;;;1.10;;
3643;SDS011;1838;50.742;7.158;2023-01-08T15:11:04;1.77;;;0.70;;
3643;SDS011;1838;50.742;7.158;2023-01-08T15:13:34;1.90;;;0.80;;
3643;SDS011;1838;50.742;7.158;2023-01-08T15:16:15;2.13;;;1.13;;
3643;SDS011;1838;50.742;7.158;2023-01-08T15:18:42;2.97;;;0.90;;
3643;SDS011;1838;50.742;7.158;2023-01-08T15:21:14;1.83;;;1.10;;
3643;SDS011;1838;50.742;7.158;2023-01-08T15:23:45;1.73;;;0.70;;
3643;SDS011;1838;50.742;7.158;2023-01-08T15:26:16;2.53;;;1.33;;
3643;SDS011;1838;50.742;7.158;2023-01-08T15:28:50;2.47;;;0.90;;
3643;SDS011;1838;50.742;7.158;2023-01-08T15:31:22;4.50;;;1.13;;
3643;SDS011;1838;50.742;7.158;2023-01-08T15:33:59;2.60;;;1.37;;
3643;SDS011;1838;50.742;7.158;2023-01-08T15:36:25;3.13;;;1.07;;
3643;SDS011;1838;50.742;7.158;2023-01-08T15:38:51;2.23;;;1.10;;
3643;SDS011;1838;50.742;7.158;2023-01-08T15:41:20;3.00;;;1.10;;
3643;SDS011;1838;50.742;7.158;2023-01-08T15:44:06;2.90;;;0.93;;
3643;SDS011;1838;50.742;7.158;2023-01-08T15:46:33;2.87;;;0.80;;
3643;SDS011;1838;50.742;7.158;2023-01-08T15:48:59;2.17;;;0.90;;
3643;SDS011;1838;50.742;7.158;2023-01-08T15:51:25;2.70;;;0.87;;
3643;SDS011;1838;50.742;7.158;2023-01-08T15:53:53;1.63;;;0.90;;
3643;SDS011;1838;50.742;7.158;2023-01-08T15:56:19;2.30;;;1.03;;
3643;SDS011;1838;50.742;7.158;2023-01-08T15:58:44;1.53;;;0.73;;
3643;SDS011;1838;50.742;7.158;2023-01-08T16:01:10;1.67;;;0.87;;
3643;SDS011;1838;50.742;7.158;2023-01-08T16:03:35;2.90;;;0.90;;
3643;SDS011;1838;50.742;7.158;2023-01-08T16:06:04;1.90;;;1.00;;
3643;SDS011;1838;50.742;7.158;2023-01-08T16:08:31;2.30;;;1.43;;
3643;SDS011;1838;50.742;7.158;2023-01-08T16:10:56;3.70;;;1.40;;
3643;SDS011;1838;50.742;7.158;2023-01-08T16:13:22;2.97;;;1.43;;
3643;SDS011;1838;50.742;7.158;2023-01-08T16:15:47;2.30;;;1.40;;
3643;SDS011;1838;50.742;7.158;2023-01-08T16:18:13;9.27;;;1.40;;
3643;SDS011;1838;50.742;7.158;2023-01-08T16:20:38;2.70;;;1.30;;
3643;SDS011;1838;50.742;7.158;2023-01-08T16:23:04;2.60;;;1.33;;
3643;SDS011;1838;50.742;7.158;2023-01-08T16:25:30;3.60;;;1.10;;
3643;SDS011;1838;50.742;7.158;2023-01-08T16:27:56;1.90;;;1.20;;
3643;SDS011;1838;50.742;7.158;2023-01-08T16:30:22;4.50;;;1.23;;
3643;SDS011;1838;50.742;7.158;2023-01-08T16:32:51;1.80;;;0.97;;
3643;SDS011;1838;50.742;7.158;2023-01-08T16:35:18;4.90;;;1.17;;
3643;SDS011;1838;50.742;7.158;2023-01-08T16:37:44;3.00;;;1.63;;
3643;SDS011;1838;50.742;7.158;2023-01-08T16:40:10;1.70;;;1.03;;
3643;SDS011;1838;50.742;7.158;2023-01-08T16:42:36;4.07;;;1.63;;
3643;SDS011;1838;50.742;7.158;2023-01-08T16:45:01;3.10;;;1.20;;
3643;SDS011;1838;50.742;7.158;2023-01-08T16:47:27;5.23;;;1.60;;
3643;SDS011;1838;50.742;7.158;2023-01-08T16:49:53;3.17;;;1.50;;
3643;SDS011;1838;50.742;7.158;2023-01-08T16:52:18;2.77;;;1.30;;